Time;durP1;ratioP1;P1;durP2;ratioP2;P2;SDS_P1;SDS_P2;PMS_P1;PMS_P2;Temp;Humidity;BMP_temperature;BMP_pressure;BME280_temperature;BME280_humidity;BME280_pressure;Samples;Min_cycle;Max_cycle;Signal;HPM_P1;HPM_P2
2022/06/13 00:00:40;;;;;;;;;;;;;;;;;;2067151;28;19965;-81
2022/06/13 00:01:40;;;;;;;;;;;;;;;;;;2066779;28;19924;-83
2022/06/13 00:02:40;;;;;;;;;;;;;;;;;;2067469;28;20390;-81
2022/06/13 00:03:41;;;;;;;;;;;;;;;;;;2067212;28;19989;-82
2022/06/13 00:04:41;;;;;;;;;;;;;;;;;;2067670;28;19924;-83
2022/06/13 00:05:42;;;;;;;;;;;;;;;;;;2067275;28;19922;-80
2022/06/13 00:06:43;;;;;;;;;;;;;;;;;;2067525;28;19913;-81
2022/06/13 00:07:44;;;;;;;;;;;;;;;;;;2067394;28;19923;-81
2022/06/13 00:08:44;;;;;;;;;;;;;;;;;;2066882;28;19961;-83
2022/06/13 00:09:45;;;;;;;;;;;;;;;;;;2067425;28;19924;-84
2022/06/13 00:10:45;;;;;;;;;;;;;;;;;;2067307;28;19914;-78
2022/06/13 00:11:45;;;;;;;;;;;;;;;;;;2067685;28;19924;-82
2022/06/13 00:12:45;;;;;;;;;;;;;;;;;;2067194;28;20322;-84
2022/06/13 00:13:48;;;;;;;;;;;;;;;;;;2067268;28;19920;-82
2022/06/13 00:14:51;;;;;;;;;;;;;;;;;;2067704;28;19958;-80
2022/06/13 00:15:51;;;;;;;;;;;;;;;;;;2067392;28;19949;-80
2022/06/13 00:16:51;;;;;;;;;;;;;;;;;;2067517;28;19945;-81
2022/06/13 00:17:51;;;;;;;;;;;;;;;;;;2067202;28;20382;-82
2022/06/13 00:18:54;;;;;;;;;;;;;;;;;;2066442;28;19918;-79
2022/06/13 00:19:55;;;;;;;;;;;;;;;;;;2066906;28;19914;-86
2022/06/13 00:20:55;;;;;;;;;;;;;;;;;;2067088;28;19914;-82
2022/06/13 00:21:58;;;;;;;;;;;;;;;;;;2058947;28;20390;-82
2022/06/13 00:22:58;;;;;;;;;;;;;;;;;;2066898;28;19921;-80
2022/06/13 00:24:01;;;;;;;;;;;;;;;;;;2067616;28;20039;-80
2022/06/13 00:25:02;;;;;;;;;;;;;;;;;;2067072;28;19925;-78
2022/06/13 00:26:02;;;;;;;;;;;;;;;;;;2058800;28;20000;-82
2022/06/13 00:27:03;;;;;;;;;;;;;;;;;;2066748;28;19920;-82
2022/06/13 00:28:03;;;;;;;;;;;;;;;;;;2066921;28;20001;-80
2022/06/13 00:29:06;;;;;;;;;;;;;;;;;;2066940;28;19930;-80
2022/06/13 00:30:07;;;;;;;;;;;;;;;;;;2066896;28;19918;-80
2022/06/13 00:31:08;;;;;;;;;;;;;;;;;;2067122;28;20016;-79
2022/06/13 00:32:08;;;;;;;;;;;;;;;;;;2067597;28;19913;-78
2022/06/13 00:33:08;;;;;;;;;;;;;;;;;;2067608;28;20008;-79
2022/06/13 00:34:09;;;;;;;;;;;;;;;;;;2067382;28;19943;-83
2022/06/13 00:35:19;;;;;;;;;;;;;;;;;;2067261;28;20005;-79
2022/06/13 00:36:23;;;;;;;;;;;;;;;;;;2066885;28;19922;-80
2022/06/13 00:37:23;;;;;;;;;;;;;;;;;;2066635;28;19922;-80
2022/06/13 00:38:24;;;;;;;;;;;;;;;;;;2067684;28;20314;-80
2022/06/13 00:39:24;;;;;;;;;;;;;;;;;;2067482;28;20292;-80
2022/06/13 00:40:24;;;;;;;;;;;;;;;;;;2067806;28;19953;-80
2022/06/13 00:41:30;;;;;;;;;;;;;;;;;;2067610;28;19925;-80
2022/06/13 00:42:30;;;;;;;;;;;;;;;;;;2066698;28;20295;-79
2022/06/13 00:43:30;;;;;;;;;;;;;;;;;;2065303;28;19977;-82
2022/06/13 00:44:32;;;;;;;;;;;;;;;;;;2066151;28;20016;-79
2022/06/13 00:45:33;;;;;;;;;;;;;;;;;;2066080;28;19914;-81
2022/06/13 00:46:34;;;;;;;;;;;;;;;;;;2066039;28;20029;-80
2022/06/13 00:47:36;;;;;;;;;;;;;;;;;;2065934;28;20378;-80
2022/06/13 00:48:36;;;;;;;;;;;;;;;;;;2066262;28;20145;-80
2022/06/13 00:49:41;;;;;;;;;;;;;;;;;;2065985;28;19913;-80
2022/06/13 00:50:44;;;;;;;;;;;;;;;;;;2066121;28;19913;-79
2022/06/13 00:52:01;;;;;;;;;;;;;;;;;;2066089;28;20004;-80
2022/06/13 00:53:09;;;;;;;;;;;;;;;;;;2065348;28;19968;-80
2022/06/13 00:54:10;;;;;;;;;;;;;;;;;;2058689;28;20574;-82
2022/06/13 00:55:11;;;;;;;;;;;;;;;;;;2065625;28;19913;-80
2022/06/13 00:56:16;;;;;;;;;;;;;;;;;;2065566;28;19918;-81
2022/06/13 00:57:19;;;;;;;;;;;;;;;;;;2073514;28;20024;-82
2022/06/13 00:58:20;;;;;;;;;;;;;;;;;;2073431;28;20148;-84
2022/06/13 00:59:25;;;;;;;;;;;;;;;;;;2065993;28;19914;-83
2022/06/13 01:00:26;;;;;;;;;;;;;;;;;;2065983;28;20240;-86
2022/06/13 01:01:28;;;;;;;;;;;;;;;;;;2065630;28;19925;-82
2022/06/13 01:02:28;;;;;;;;;;;;;;;;;;2065767;28;19925;-84
2022/06/13 01:03:29;;;;;;;;;;;;;;;;;;2065551;28;20355;-82
2022/06/13 01:04:29;;;;;;;;;;;;;;;;;;2065671;28;19996;-83
2022/06/13 01:05:30;;;;;;;;;;;;;;;;;;2066002;28;19924;-80
2022/06/13 01:06:33;;;;;;;;;;;;;;;;;;2066143;28;19996;-83
2022/06/13 01:07:35;;;;;;;;;;;;;;;;;;2066117;28;19924;-80
2022/06/13 01:08:36;;;;;;;;;;;;;;;;;;2065799;28;19924;-80
2022/06/13 01:11:16;;;;;;;;;;;;;;;;;;2066466;28;19913;-82
2022/06/13 01:12:17;;;;;;;;;;;;;;;;;;2065885;28;19926;-81
2022/06/13 01:13:17;;;;;;;;;;;;;;;;;;2065338;28;19918;-80
2022/06/13 01:14:20;;;;;;;;;;;;;;;;;;2065227;28;19929;-81
2022/06/13 01:15:39;;;;;;;;;;;;;;;;;;2065782;28;19914;-85
2022/06/13 01:16:39;;;;;;;;;;;;;;;;;;2065381;28;20017;-84
2022/06/13 01:17:40;;;;;;;;;;;;;;;;;;2065347;28;19921;-81
2022/06/13 01:19:03;;;;;;;;;;;;;;;;;;2066214;28;20248;-81
2022/06/13 01:20:06;;;;;;;;;;;;;;;;;;2064848;28;19914;-89
2022/06/13 01:21:24;;;;;;;;;;;;;;;;;;2073214;28;19925;-79
2022/06/13 01:22:43;;;;;;;;;;;;;;;;;;2071306;28;19913;-82
2022/06/13 01:24:03;;;;;;;;;;;;;;;;;;2065976;28;20107;-80
2022/06/13 01:25:11;;;;;;;;;;;;;;;;;;2065504;28;19976;-79
2022/06/13 01:26:26;;;;;;;;;;;;;;;;;;2065337;28;20077;-88
2022/06/13 01:27:29;;;;;;;;;;;;;;;;;;2065214;28;20353;-80
2022/06/13 01:28:45;;;;;;;;;;;;;;;;;;2065202;28;19925;-81
2022/06/13 01:29:49;;;;;;;;;;;;;;;;;;2065460;28;20333;-81
2022/06/13 01:30:55;;;;;;;;;;;;;;;;;;2065271;28;20263;-80
2022/06/13 01:32:13;;;;;;;;;;;;;;;;;;2057775;28;19957;-79
2022/06/13 01:33:32;;;;;;;;;;;;;;;;;;2065497;28;19921;-82
2022/06/13 01:34:40;;;;;;;;;;;;;;;;;;2064992;28;19918;-82
2022/06/13 01:35:52;;;;;;;;;;;;;;;;;;2065136;28;20248;-78
2022/06/13 01:37:00;;;;;;;;;;;;;;;;;;2065629;28;19922;-82
2022/06/13 01:38:03;;;;;;;;;;;;;;;;;;2065491;28;20278;-81
2022/06/13 01:39:19;;;;;;;;;;;;;;;;;;2073587;28;19924;-80
2022/06/13 01:40:19;;;;;;;;;;;;;;;;;;2065575;28;20366;-83
2022/06/13 01:41:24;;;;;;;;;;;;;;;;;;2057140;28;19977;-83
2022/06/13 01:42:37;;;;;;;;;;;;;;;;;;2065680;28;20351;-81
2022/06/13 01:43:49;;;;;;;;;;;;;;;;;;2065348;28;19917;-86
2022/06/13 01:44:52;;;;;;;;;;;;;;;;;;2066101;28;19916;-81
2022/06/13 01:46:05;;;;;;;;;;;;;;;;;;2065548;28;19953;-80
2022/06/13 01:47:17;;;;;;;;;;;;;;;;;;2065792;28;19918;-82
2022/06/13 01:48:23;;;;;;;;;;;;;;;;;;2065898;28;19914;-89
2022/06/13 01:49:29;;;;;;;;;;;;;;;;;;2064908;28;20421;-82
2022/06/13 01:50:31;;;;;;;;;;;;;;;;;;2065030;28;19924;-83
2022/06/13 01:51:53;;;;;;;;;;;;;;;;;;2064928;28;19913;-81
2022/06/13 01:53:07;;;;;;;;;;;;;;;;;;2065530;28;19972;-83
2022/06/13 01:54:13;;;;;;;;;;;;;;;;;;2065401;28;20361;-81
2022/06/13 01:55:29;;;;;;;;;;;;;;;;;;2065601;28;19918;-84
2022/06/13 01:56:32;;;;;;;;;;;;;;;;;;2064838;28;20294;-85
2022/06/13 01:57:35;;;;;;;;;;;;;;;;;;2064861;28;20298;-82
2022/06/13 01:58:35;;;;;;;;;;;;;;;;;;2065310;28;19914;-83
2022/06/13 01:59:38;;;;;;;;;;;;;;;;;;2065533;28;19914;-83
2022/06/13 02:00:39;;;;;;;;;;;;;;;;;;2065661;28;19918;-81
2022/06/13 02:01:46;;;;;;;;;;;;;;;;;;2065245;28;19964;-87
2022/06/13 02:03:05;;;;;;;;;;;;;;;;;;2064869;28;20377;-83
2022/06/13 02:04:12;;;;;;;;;;;;;;;;;;2068435;28;19914;-81
2022/06/13 02:05:18;;;;;;;;;;;;;;;;;;2065916;28;20013;-82
2022/06/13 02:06:25;;;;;;;;;;;;;;;;;;2065302;28;19922;-85
2022/06/13 02:07:27;;;;;;;;;;;;;;;;;;2064559;28;20447;-82
2022/06/13 02:08:33;;;;;;;;;;;;;;;;;;2065574;28;19944;-82
2022/06/13 02:09:38;;;;;;;;;;;;;;;;;;2065016;28;20327;-82
2022/06/13 02:10:41;;;;;;;;;;;;;;;;;;2057153;28;20016;-83
2022/06/13 02:11:51;;;;;;;;;;;;;;;;;;2065095;28;19925;-82
2022/06/13 02:12:54;;;;;;;;;;;;;;;;;;2065130;28;19917;-81
2022/06/13 02:14:00;;;;;;;;;;;;;;;;;;2065776;28;19920;-82
2022/06/13 02:15:06;;;;;;;;;;;;;;;;;;2065354;28;19943;-82
2022/06/13 02:16:10;;;;;;;;;;;;;;;;;;2065160;28;20286;-82
2022/06/13 02:17:11;;;;;;;;;;;;;;;;;;2065165;28;19925;-82
2022/06/13 02:18:14;;;;;;;;;;;;;;;;;;2065713;28;20009;-82
2022/06/13 02:19:18;;;;;;;;;;;;;;;;;;2064907;28;20075;-83
2022/06/13 02:20:28;;;;;;;;;;;;;;;;;;2064716;28;19964;-84
2022/06/13 02:21:36;;;;;;;;;;;;;;;;;;2065606;28;19918;-80
2022/06/13 02:22:45;;;;;;;;;;;;;;;;;;2067852;28;19917;-81
2022/06/13 02:23:47;;;;;;;;;;;;;;;;;;2064451;28;19921;-88
2022/06/13 02:24:50;;;;;;;;;;;;;;;;;;2065075;28;20343;-81
2022/06/13 02:26:00;;;;;;;;;;;;;;;;;;2065357;28;19953;-79
2022/06/13 02:27:01;;;;;;;;;;;;;;;;;;2065447;28;19914;-81
2022/06/13 02:28:06;;;;;;;;;;;;;;;;;;2065095;28;19914;-80
2022/06/13 02:29:17;;;;;;;;;;;;;;;;;;2065630;28;20370;-80
2022/06/13 02:30:21;;;;;;;;;;;;;;;;;;2064521;28;19980;-82
2022/06/13 02:31:42;;;;;;;;;;;;;;;;;;2056753;28;19965;-82
2022/06/13 02:33:00;;;;;;;;;;;;;;;;;;2058626;28;20273;-81
2022/06/13 02:34:15;;;;;;;;;;;;;;;;;;2064480;28;19914;-83
2022/06/13 02:35:19;;;;;;;;;;;;;;;;;;2064772;28;19914;-83
2022/06/13 02:36:49;;;;;;;;;;;;;;;;;;2064818;28;20020;-85
2022/06/13 02:38:12;;;;;;;;;;;;;;;;;;2047656;28;19936;-83
2022/06/13 02:39:18;;;;;;;;;;;;;;;;;;2064852;28;19949;-81
2022/06/13 02:40:24;;;;;;;;;;;;;;;;;;2064436;28;20330;-82
2022/06/13 02:41:26;;;;;;;;;;;;;;;;;;2064689;28;19918;-80
2022/06/13 02:42:37;;;;;;;;;;;;;;;;;;2064778;28;19921;-81
2022/06/13 02:43:58;;;;;;;;;;;;;;;;;;2057720;28;19933;-84
2022/06/13 02:45:03;;;;;;;;;;;;;;;;;;2066759;28;20049;-82
2022/06/13 02:46:16;;;;;;;;;;;;;;;;;;2072195;28;19937;-81
2022/06/13 02:47:35;;;;;;;;;;;;;;;;;;2064732;28;19928;-81
2022/06/13 02:48:35;;;;;;;;;;;;;;;;;;2064535;28;20278;-82
2022/06/13 02:49:38;;;;;;;;;;;;;;;;;;2064548;28;19914;-81
2022/06/13 02:50:43;;;;;;;;;;;;;;;;;;2064718;28;19925;-83
2022/06/13 02:51:59;;;;;;;;;;;;;;;;;;2065020;28;20319;-80
2022/06/13 02:53:09;;;;;;;;;;;;;;;;;;2065014;28;19945;-82
2022/06/13 02:54:34;;;;;;;;;;;;;;;;;;2064386;28;19914;-81
2022/06/13 02:55:40;;;;;;;;;;;;;;;;;;2065024;28;19914;-85
2022/06/13 02:58:22;;;;;;;;;;;;;;;;;;2067952;28;20315;-80
2022/06/13 02:59:31;;;;;;;;;;;;;;;;;;2065071;28;19925;-82
2022/06/13 03:00:34;;;;;;;;;;;;;;;;;;2064975;28;19980;-80
2022/06/13 03:01:42;;;;;;;;;;;;;;;;;;2064307;28;19924;-82
2022/06/13 03:02:48;;;;;;;;;;;;;;;;;;2064803;28;19921;-83
2022/06/13 03:04:01;;;;;;;;;;;;;;;;;;2065181;28;19928;-82
2022/06/13 03:05:08;;;;;;;;;;;;;;;;;;2065358;28;20000;-81
2022/06/13 03:06:09;;;;;;;;;;;;;;;;;;2064254;28;19929;-82
2022/06/13 03:07:28;;;;;;;;;;;;;;;;;;2064684;28;20016;-82
2022/06/13 03:08:55;;;;;;;;;;;;;;;;;;2064555;28;20466;-85
2022/06/13 03:10:02;;;;;;;;;;;;;;;;;;2062246;28;19928;-83
2022/06/13 03:11:12;;;;;;;;;;;;;;;;;;2065095;28;20383;-85
2022/06/13 03:12:32;;;;;;;;;;;;;;;;;;2065067;28;19914;-83
2022/06/13 03:13:44;;;;;;;;;;;;;;;;;;2040204;29;19919;-86
2022/06/13 03:14:54;;;;;;;;;;;;;;;;;;2064405;28;19964;-79
2022/06/13 03:15:57;;;;;;;;;;;;;;;;;;2064196;28;19914;-81
2022/06/13 03:17:00;;;;;;;;;;;;;;;;;;2064228;28;19925;-83
2022/06/13 03:18:04;;;;;;;;;;;;;;;;;;2064231;28;19925;-81
2022/06/13 03:19:09;;;;;;;;;;;;;;;;;;2064230;28;19913;-81
2022/06/13 03:20:30;;;;;;;;;;;;;;;;;;2072567;28;19913;-81
2022/06/13 03:21:33;;;;;;;;;;;;;;;;;;2069837;28;20000;-81
2022/06/13 03:22:52;;;;;;;;;;;;;;;;;;2064044;28;20123;-82
2022/06/13 03:24:02;;;;;;;;;;;;;;;;;;2072511;28;19918;-80
2022/06/13 03:25:07;;;;;;;;;;;;;;;;;;2071075;28;19984;-81
2022/06/13 03:26:15;;;;;;;;;;;;;;;;;;2064932;28;19913;-80
2022/06/13 03:27:31;;;;;;;;;;;;;;;;;;2064986;28;19914;-84
2022/06/13 03:28:44;;;;;;;;;;;;;;;;;;2064213;28;19914;-82
2022/06/13 03:29:49;;;;;;;;;;;;;;;;;;2064819;28;19960;-83
2022/06/13 03:30:53;;;;;;;;;;;;;;;;;;2064823;28;19914;-84
2022/06/13 03:31:56;;;;;;;;;;;;;;;;;;2064804;28;20509;-82
2022/06/13 03:34:21;;;;;;;;;;;;;;;;;;2064697;28;19949;-81
2022/06/13 03:35:21;;;;;;;;;;;;;;;;;;2065297;28;20015;-81
2022/06/13 03:36:31;;;;;;;;;;;;;;;;;;2064895;28;20318;-84
2022/06/13 03:37:40;;;;;;;;;;;;;;;;;;2064917;28;19914;-82
2022/06/13 03:38:42;;;;;;;;;;;;;;;;;;2064702;28;20513;-82
2022/06/13 03:39:42;;;;;;;;;;;;;;;;;;2064484;28;19968;-82
2022/06/13 03:40:46;;;;;;;;;;;;;;;;;;2064727;28;19917;-87
2022/06/13 03:41:49;;;;;;;;;;;;;;;;;;2064972;28;19925;-82
2022/06/13 03:43:18;;;;;;;;;;;;;;;;;;2064593;28;19933;-80
2022/06/13 03:44:24;;;;;;;;;;;;;;;;;;2047984;29;19915;-82
2022/06/13 03:45:34;;;;;;;;;;;;;;;;;;2048011;29;19914;-83
2022/06/13 03:47:01;;;;;;;;;;;;;;;;;;2065016;28;19924;-84
2022/06/13 03:48:12;;;;;;;;;;;;;;;;;;2063791;28;19913;-85
2022/06/13 03:49:18;;;;;;;;;;;;;;;;;;2065148;28;19984;-82
2022/06/13 03:50:24;;;;;;;;;;;;;;;;;;2065200;28;19941;-82
2022/06/13 03:51:27;;;;;;;;;;;;;;;;;;2064610;28;19918;-87
2022/06/13 03:52:28;;;;;;;;;;;;;;;;;;2064993;28;20276;-80
2022/06/13 03:53:37;;;;;;;;;;;;;;;;;;2064670;28;19928;-85
2022/06/13 03:54:41;;;;;;;;;;;;;;;;;;2068091;28;19913;-86
2022/06/13 03:55:45;;;;;;;;;;;;;;;;;;2064777;28;20052;-81
2022/06/13 03:56:48;;;;;;;;;;;;;;;;;;2064481;28;19918;-81
2022/06/13 03:57:52;;;;;;;;;;;;;;;;;;2064422;28;19914;-80
2022/06/13 03:58:52;;;;;;;;;;;;;;;;;;2064351;28;20595;-82
2022/06/13 04:00:08;;;;;;;;;;;;;;;;;;2064445;28;19969;-80
2022/06/13 04:01:13;;;;;;;;;;;;;;;;;;2065824;28;19925;-81
2022/06/13 04:02:16;;;;;;;;;;;;;;;;;;2064660;28;19960;-84
2022/06/13 04:03:17;;;;;;;;;;;;;;;;;;2064596;28;20000;-80
2022/06/13 04:04:19;;;;;;;;;;;;;;;;;;2064226;28;19914;-83
2022/06/13 04:05:22;;;;;;;;;;;;;;;;;;2064549;28;20418;-80
2022/06/13 04:06:48;;;;;;;;;;;;;;;;;;2064300;28;19966;-84
2022/06/13 04:07:48;;;;;;;;;;;;;;;;;;2065754;28;19972;-84
2022/06/13 04:08:49;;;;;;;;;;;;;;;;;;2064563;28;20007;-82
2022/06/13 04:10:08;;;;;;;;;;;;;;;;;;2064383;28;19953;-81
2022/06/13 04:11:21;;;;;;;;;;;;;;;;;;2064936;28;19964;-84
2022/06/13 04:12:21;;;;;;;;;;;;;;;;;;2065741;28;19918;-84
2022/06/13 04:13:31;;;;;;;;;;;;;;;;;;2065095;28;19988;-80
2022/06/13 04:14:34;;;;;;;;;;;;;;;;;;2064492;28;19914;-82
2022/06/13 04:15:53;;;;;;;;;;;;;;;;;;2064684;28;19950;-83
2022/06/13 04:16:57;;;;;;;;;;;;;;;;;;2064365;28;19976;-86
2022/06/13 04:18:24;;;;;;;;;;;;;;;;;;2065688;28;19961;-84
2022/06/13 04:19:24;;;;;;;;;;;;;;;;;;2063531;28;19921;-85
2022/06/13 04:20:25;;;;;;;;;;;;;;;;;;2066068;28;19914;-84
2022/06/13 04:21:35;;;;;;;;;;;;;;;;;;2066446;28;19972;-82
2022/06/13 04:22:43;;;;;;;;;;;;;;;;;;2066423;28;19938;-83
2022/06/13 04:24:05;;;;;;;;;;;;;;;;;;2066188;28;19914;-81
2022/06/13 04:25:05;;;;;;;;;;;;;;;;;;2066456;28;20310;-83
2022/06/13 04:26:21;;;;;;;;;;;;;;;;;;2066518;28;19913;-85
2022/06/13 04:27:23;;;;;;;;;;;;;;;;;;2066086;28;19949;-80
2022/06/13 04:28:35;;;;;;;;;;;;;;;;;;2066594;28;20436;-83
2022/06/13 04:29:35;;;;;;;;;;;;;;;;;;2066798;28;19914;-81
2022/06/13 04:30:35;;;;;;;;;;;;;;;;;;2066350;28;19933;-81
2022/06/13 04:31:36;;;;;;;;;;;;;;;;;;2066176;28;19953;-79
2022/06/13 04:32:40;;;;;;;;;;;;;;;;;;2065805;28;20302;-84
2022/06/13 04:33:43;;;;;;;;;;;;;;;;;;2065819;28;19925;-82
2022/06/13 04:34:46;;;;;;;;;;;;;;;;;;2066538;28;20436;-83
2022/06/13 04:35:47;;;;;;;;;;;;;;;;;;2066370;28;19918;-81
2022/06/13 04:36:49;;;;;;;;;;;;;;;;;;2066036;28;20265;-82
2022/06/13 04:37:49;;;;;;;;;;;;;;;;;;2064451;28;19976;-82
2022/06/13 04:38:52;;;;;;;;;;;;;;;;;;2061151;28;20290;-83
2022/06/13 04:39:58;;;;;;;;;;;;;;;;;;2064076;28;19913;-83
2022/06/13 04:41:00;;;;;;;;;;;;;;;;;;2063249;28;19926;-82
2022/06/13 04:42:02;;;;;;;;;;;;;;;;;;2062980;28;19953;-88
2022/06/13 04:43:05;;;;;;;;;;;;;;;;;;2068498;28;19926;-82
2022/06/13 04:44:07;;;;;;;;;;;;;;;;;;2069824;28;20286;-83
2022/06/13 04:45:16;;;;;;;;;;;;;;;;;;2061041;28;19949;-83
2022/06/13 04:46:18;;;;;;;;;;;;;;;;;;2057923;28;20342;-83
2022/06/13 04:47:18;;;;;;;;;;;;;;;;;;2057519;28;20024;-81
2022/06/13 04:48:19;;;;;;;;;;;;;;;;;;2057546;28;19918;-82
2022/06/13 04:49:31;;;;;;;;;;;;;;;;;;2057524;28;20165;-81
2022/06/13 04:50:36;;;;;;;;;;;;;;;;;;2058234;28;19917;-80
2022/06/13 04:51:38;;;;;;;;;;;;;;;;;;2057735;28;20360;-82
2022/06/13 04:52:40;;;;;;;;;;;;;;;;;;2057865;28;20141;-82
2022/06/13 04:54:13;;;;;;;;;;;;;;;;;;2065521;28;20274;-81
2022/06/13 04:55:35;;;;;;;;;;;;;;;;;;2025822;29;19927;-81
2022/06/13 04:56:36;;;;;;;;;;;;;;;;;;2052098;28;19926;-80
2022/06/13 04:57:36;;;;;;;;;;;;;;;;;;2057477;28;19914;-82
2022/06/13 04:58:38;;;;;;;;;;;;;;;;;;2056530;28;20303;-81
2022/06/13 04:59:40;;;;;;;;;;;;;;;;;;2056731;28;19969;-82
2022/06/13 05:00:40;;;;;;;;;;;;;;;;;;2057030;28;19913;-82
2022/06/13 05:01:43;;;;;;;;;;;;;;;;;;2056679;28;20009;-82
2022/06/13 05:02:45;;;;;;;;;;;;;;;;;;2056534;28;19913;-84
2022/06/13 05:03:47;;;;;;;;;;;;;;;;;;2056701;28;19921;-82
2022/06/13 05:04:50;;;;;;;;;;;;;;;;;;2056722;28;19918;-87
2022/06/13 05:05:53;;;;;;;;;;;;;;;;;;2057142;28;19914;-82
2022/06/13 05:06:55;;;;;;;;;;;;;;;;;;2056781;28;20279;-82
2022/06/13 05:07:55;;;;;;;;;;;;;;;;;;2056305;28;19914;-84
2022/06/13 05:09:00;;;;;;;;;;;;;;;;;;2056499;28;20005;-80
2022/06/13 05:10:03;;;;;;;;;;;;;;;;;;2057296;28;19925;-84
2022/06/13 05:11:14;;;;;;;;;;;;;;;;;;2056794;28;19914;-84
2022/06/13 05:12:17;;;;;;;;;;;;;;;;;;2050088;28;19915;-82
2022/06/13 05:13:18;;;;;;;;;;;;;;;;;;2056707;28;19961;-81
2022/06/13 05:14:30;;;;;;;;;;;;;;;;;;2056984;28;19929;-81
2022/06/13 05:15:32;;;;;;;;;;;;;;;;;;2050254;28;20003;-83
2022/06/13 05:16:46;;;;;;;;;;;;;;;;;;2056685;28;19933;-82
2022/06/13 05:17:49;;;;;;;;;;;;;;;;;;2057656;28;20186;-82
2022/06/13 05:18:49;;;;;;;;;;;;;;;;;;2057608;28;19918;-81
2022/06/13 05:20:02;;;;;;;;;;;;;;;;;;2058074;28;19918;-82
2022/06/13 05:21:11;;;;;;;;;;;;;;;;;;2058250;28;19926;-87
2022/06/13 05:22:28;;;;;;;;;;;;;;;;;;2057788;28;19932;-81
2022/06/13 05:23:36;;;;;;;;;;;;;;;;;;2056968;28;19914;-84
2022/06/13 05:24:55;;;;;;;;;;;;;;;;;;2057503;28;20013;-82
2022/06/13 05:25:57;;;;;;;;;;;;;;;;;;2057719;28;20360;-83
2022/06/13 05:26:57;;;;;;;;;;;;;;;;;;2065387;28;19914;-89
2022/06/13 05:27:59;;;;;;;;;;;;;;;;;;2065366;28;19979;-84
2022/06/13 05:29:00;;;;;;;;;;;;;;;;;;2056660;28;20367;-82
2022/06/13 05:30:00;;;;;;;;;;;;;;;;;;2057413;28;19921;-82
2022/06/13 05:31:06;;;;;;;;;;;;;;;;;;2049558;29;19918;-84
2022/06/13 05:32:07;;;;;;;;;;;;;;;;;;2057492;28;19925;-85
2022/06/13 05:33:09;;;;;;;;;;;;;;;;;;2057610;28;19925;-82
2022/06/13 05:34:16;;;;;;;;;;;;;;;;;;2057669;28;20434;-81
2022/06/13 05:35:21;;;;;;;;;;;;;;;;;;2057549;28;19925;-80
2022/06/13 05:36:23;;;;;;;;;;;;;;;;;;2058086;28;20444;-84
2022/06/13 05:37:24;;;;;;;;;;;;;;;;;;2057729;28;19914;-83
2022/06/13 05:38:40;;;;;;;;;;;;;;;;;;2057547;28;20367;-83
2022/06/13 05:39:40;;;;;;;;;;;;;;;;;;2057050;28;19914;-83
2022/06/13 05:40:41;;;;;;;;;;;;;;;;;;2049367;29;19946;-88
2022/06/13 05:41:41;;;;;;;;;;;;;;;;;;2057119;28;19996;-83
2022/06/13 05:42:41;;;;;;;;;;;;;;;;;;2057578;28;19921;-88
2022/06/13 05:43:42;;;;;;;;;;;;;;;;;;2057972;28;19949;-84
2022/06/13 05:44:42;;;;;;;;;;;;;;;;;;2057656;28;19918;-85
2022/06/13 05:45:42;;;;;;;;;;;;;;;;;;2057483;28;19914;-83
2022/06/13 05:46:43;;;;;;;;;;;;;;;;;;2056917;28;19914;-83
2022/06/13 05:47:44;;;;;;;;;;;;;;;;;;2057310;28;19914;-83
2022/06/13 05:48:45;;;;;;;;;;;;;;;;;;2065703;28;19914;-82
2022/06/13 05:49:45;;;;;;;;;;;;;;;;;;2065636;28;19914;-83
2022/06/13 05:50:45;;;;;;;;;;;;;;;;;;2057829;28;19949;-83
2022/06/13 05:51:46;;;;;;;;;;;;;;;;;;2057737;28;20444;-80
2022/06/13 05:52:46;;;;;;;;;;;;;;;;;;2057701;28;19988;-80
2022/06/13 05:53:46;;;;;;;;;;;;;;;;;;2057803;28;19977;-82
2022/06/13 05:54:47;;;;;;;;;;;;;;;;;;2057794;28;19914;-82
2022/06/13 05:55:48;;;;;;;;;;;;;;;;;;2057354;28;19918;-85
2022/06/13 05:56:48;;;;;;;;;;;;;;;;;;2057592;28;19953;-78
2022/06/13 05:57:48;;;;;;;;;;;;;;;;;;2057584;28;19996;-81
2022/06/13 05:58:49;;;;;;;;;;;;;;;;;;2064737;28;19920;-84
2022/06/13 05:59:49;;;;;;;;;;;;;;;;;;2065223;28;20343;-82
2022/06/13 06:00:52;;;;;;;;;;;;;;;;;;2057528;28;19999;-83
2022/06/13 06:01:52;;;;;;;;;;;;;;;;;;2057623;28;19925;-81
2022/06/13 06:02:53;;;;;;;;;;;;;;;;;;2057463;28;20399;-83
2022/06/13 06:03:53;;;;;;;;;;;;;;;;;;2057543;28;20290;-86
2022/06/13 06:04:53;;;;;;;;;;;;;;;;;;2057021;28;20352;-82
2022/06/13 06:05:54;;;;;;;;;;;;;;;;;;2049191;29;19914;-80
2022/06/13 06:06:54;;;;;;;;;;;;;;;;;;2049306;29;20360;-81
2022/06/13 06:07:56;;;;;;;;;;;;;;;;;;2056922;28;19993;-82
2022/06/13 06:08:56;;;;;;;;;;;;;;;;;;2057015;28;19914;-82
2022/06/13 06:09:58;;;;;;;;;;;;;;;;;;2057504;28;20419;-81
2022/06/13 06:11:00;;;;;;;;;;;;;;;;;;2056911;28;19922;-81
2022/06/13 06:12:01;;;;;;;;;;;;;;;;;;2049228;28;19914;-85
2022/06/13 06:13:01;;;;;;;;;;;;;;;;;;2056875;28;19914;-83
2022/06/13 06:14:01;;;;;;;;;;;;;;;;;;2057484;28;19918;-81
2022/06/13 06:15:02;;;;;;;;;;;;;;;;;;2057512;28;19977;-82
2022/06/13 06:16:02;;;;;;;;;;;;;;;;;;2057419;28;20379;-82
2022/06/13 06:17:03;;;;;;;;;;;;;;;;;;2057676;28;19934;-82
2022/06/13 06:18:03;;;;;;;;;;;;;;;;;;2057520;28;19914;-82
2022/06/13 06:19:06;;;;;;;;;;;;;;;;;;2057382;28;19914;-81
2022/06/13 06:20:07;;;;;;;;;;;;;;;;;;2057212;28;19921;-80
2022/06/13 06:21:10;;;;;;;;;;;;;;;;;;2057035;28;19942;-84
2022/06/13 06:22:10;;;;;;;;;;;;;;;;;;2056785;28;19914;-81
2022/06/13 06:23:12;;;;;;;;;;;;;;;;;;2057598;28;19914;-82
2022/06/13 06:24:12;;;;;;;;;;;;;;;;;;2057161;28;19914;-80
2022/06/13 06:25:13;;;;;;;;;;;;;;;;;;2057518;28;20228;-85
2022/06/13 06:26:15;;;;;;;;;;;;;;;;;;2057421;28;19914;-83
2022/06/13 06:27:15;;;;;;;;;;;;;;;;;;2057547;28;19950;-80
2022/06/13 06:28:17;;;;;;;;;;;;;;;;;;2056846;28;19918;-81
2022/06/13 06:29:18;;;;;;;;;;;;;;;;;;2049136;28;20375;-81
2022/06/13 06:30:18;;;;;;;;;;;;;;;;;;2057005;28;19918;-83
2022/06/13 06:31:19;;;;;;;;;;;;;;;;;;2057327;28;19926;-84
2022/06/13 06:32:19;;;;;;;;;;;;;;;;;;2057459;28;19918;-81
2022/06/13 06:33:21;;;;;;;;;;;;;;;;;;2057302;28;19918;-84
2022/06/13 06:34:21;;;;;;;;;;;;;;;;;;2057245;28;19921;-81
2022/06/13 06:35:22;;;;;;;;;;;;;;;;;;2057069;28;20378;-81
2022/06/13 06:36:26;;;;;;;;;;;;;;;;;;2056541;28;19944;-85
2022/06/13 06:37:26;;;;;;;;;;;;;;;;;;2056813;28;19949;-84
2022/06/13 06:38:27;;;;;;;;;;;;;;;;;;2057651;28;19914;-81
2022/06/13 06:39:28;;;;;;;;;;;;;;;;;;2056801;28;20270;-83
2022/06/13 06:40:28;;;;;;;;;;;;;;;;;;2056270;28;19914;-82
2022/06/13 06:41:28;;;;;;;;;;;;;;;;;;2056234;28;19918;-82
2022/06/13 06:42:29;;;;;;;;;;;;;;;;;;2057011;28;19996;-81
2022/06/13 06:43:29;;;;;;;;;;;;;;;;;;2056495;28;20351;-82
2022/06/13 06:44:29;;;;;;;;;;;;;;;;;;2056910;28;20009;-81
2022/06/13 06:45:29;;;;;;;;;;;;;;;;;;2057050;28;19962;-83
2022/06/13 06:46:30;;;;;;;;;;;;;;;;;;2056472;28;20105;-81
2022/06/13 06:47:30;;;;;;;;;;;;;;;;;;2056552;28;19968;-83
2022/06/13 06:48:30;;;;;;;;;;;;;;;;;;2057462;28;19979;-83
2022/06/13 06:49:34;;;;;;;;;;;;;;;;;;2057104;28;19914;-88
2022/06/13 06:50:34;;;;;;;;;;;;;;;;;;2056785;28;19914;-83
2022/06/13 06:51:35;;;;;;;;;;;;;;;;;;2057381;28;19914;-82
2022/06/13 06:52:35;;;;;;;;;;;;;;;;;;2056989;28;20552;-83
2022/06/13 07:00:13;;;;;;;;;;;;;;;;;;2057328;28;19922;-82
2022/06/13 07:01:16;;;;;;;;;;;;;;;;;;2057268;28;20370;-83
2022/06/13 07:02:16;;;;;;;;;;;;;;;;;;2056363;28;19997;-88
2022/06/13 07:03:17;;;;;;;;;;;;;;;;;;2056549;28;19914;-80
2022/06/13 07:04:17;;;;;;;;;;;;;;;;;;2057072;28;19930;-83
2022/06/13 07:05:18;;;;;;;;;;;;;;;;;;2057356;28;19925;-82
2022/06/13 07:06:18;;;;;;;;;;;;;;;;;;2057051;28;19968;-80
2022/06/13 07:07:19;;;;;;;;;;;;;;;;;;2056473;28;19948;-86
2022/06/13 07:08:22;;;;;;;;;;;;;;;;;;2048745;28;20000;-84
2022/06/13 07:09:22;;;;;;;;;;;;;;;;;;2056633;28;19953;-82
2022/06/13 07:10:22;;;;;;;;;;;;;;;;;;2056444;28;19914;-80
2022/06/13 07:12:42;;;;;;;;;;;;;;;;;;2057041;28;19914;-83
2022/06/13 07:13:43;;;;;;;;;;;;;;;;;;2057205;28;20347;-81
2022/06/13 07:14:44;;;;;;;;;;;;;;;;;;2056805;28;19914;-80
2022/06/13 07:15:46;;;;;;;;;;;;;;;;;;2056317;28;20371;-83
2022/06/13 07:16:46;;;;;;;;;;;;;;;;;;2056538;28;19914;-83
2022/06/13 07:17:47;;;;;;;;;;;;;;;;;;2056963;28;19914;-83
2022/06/13 07:18:47;;;;;;;;;;;;;;;;;;2057294;28;20021;-84
2022/06/13 07:19:47;;;;;;;;;;;;;;;;;;2056493;28;19918;-83
2022/06/13 07:20:48;;;;;;;;;;;;;;;;;;2056098;28;19915;-82
2022/06/13 07:21:48;;;;;;;;;;;;;;;;;;2056925;28;19929;-82
2022/06/13 07:22:51;;;;;;;;;;;;;;;;;;2056984;28;19929;-83
2022/06/13 07:23:51;;;;;;;;;;;;;;;;;;2057097;28;19933;-83
2022/06/13 07:24:51;;;;;;;;;;;;;;;;;;2057358;28;19914;-80
2022/06/13 07:25:52;;;;;;;;;;;;;;;;;;2056790;28;19942;-81
2022/06/13 07:26:52;;;;;;;;;;;;;;;;;;2056991;28;19925;-82
2022/06/13 07:27:52;;;;;;;;;;;;;;;;;;2056587;28;19915;-87
2022/06/13 07:28:55;;;;;;;;;;;;;;;;;;2056611;28;19914;-81
2022/06/13 07:29:55;;;;;;;;;;;;;;;;;;2056785;28;19918;-81
2022/06/13 07:30:58;;;;;;;;;;;;;;;;;;2057039;28;20330;-83
2022/06/13 07:32:12;;;;;;;;;;;;;;;;;;2057474;28;20284;-82
2022/06/13 07:33:13;;;;;;;;;;;;;;;;;;2056235;28;20139;-82
2022/06/13 07:34:14;;;;;;;;;;;;;;;;;;2056377;28;19918;-83
2022/06/13 07:35:16;;;;;;;;;;;;;;;;;;2056946;28;19914;-83